Terminal Aerodrome Forecast
Issued by NWS Pueblo, CO

Home | Current Version | Previous Version | Text Only | Print | Product List | Glossary On
Versions: 1 2 3 4 5 6 7 8 9 10 11 12 13 14 15 16 17 18 19 20 21 22 23 24 25 26 27 28 29 30
000
FTUS45 KPUB 011127
TAFALS
TAF
KALS 011127Z 0112/0212 20008KT P6SM SKC
     FM011900 27014KT P6SM SCT090
     FM020100 33010KT P6SM FEW090
     FM020400 VRB04KT P6SM SKC=

USA.gov is the U.S. government's official web portal to all federal, state and local government web resources and services.